sensor_id;sensor_type;location;lat;lon;timestamp;temperature;humidity
28677;DHT22;15858;48.338;11.078;2023-03-03T00:00:45;1.30;99.90
28677;DHT22;15858;48.338;11.078;2023-03-03T00:03:19;1.30;99.90
28677;DHT22;15858;48.338;11.078;2023-03-03T00:05:46;1.40;99.90
28677;DHT22;15858;48.338;11.078;2023-03-03T00:08:12;1.40;99.90
28677;DHT22;15858;48.338;11.078;2023-03-03T00:10:39;1.40;99.90
28677;DHT22;15858;48.338;11.078;2023-03-03T00:13:22;1.40;99.90
28677;DHT22;15858;48.338;11.078;2023-03-03T00:15:50;1.40;99.90
28677;DHT22;15858;48.338;11.078;2023-03-03T00:20:55;1.30;99.90
28677;DHT22;15858;48.338;11.078;2023-03-03T00:25:55;1.20;99.90
28677;DHT22;15858;48.338;11.078;2023-03-03T00:28:26;1.30;99.90
28677;DHT22;15858;48.338;11.078;2023-03-03T00:30:58;1.20;99.90
28677;DHT22;15858;48.338;11.078;2023-03-03T00:33:31;1.30;99.90
28677;DHT22;15858;48.338;11.078;2023-03-03T00:36:24;1.20;99.90
28677;DHT22;15858;48.338;11.078;2023-03-03T00:38:53;1.30;99.90
28677;DHT22;15858;48.338;11.078;2023-03-03T00:41:26;1.30;99.90
28677;DHT22;15858;48.338;11.078;2023-03-03T00:43:53;1.20;99.90
28677;DHT22;15858;48.338;11.078;2023-03-03T00:46:21;1.20;99.90
28677;DHT22;15858;48.338;11.078;2023-03-03T00:48:50;1.10;99.90
28677;DHT22;15858;48.338;11.078;2023-03-03T00:53:49;1.10;99.90
28677;DHT22;15858;48.338;11.078;2023-03-03T00:56:15;1.10;99.90
28677;DHT22;15858;48.338;11.078;2023-03-03T00:58:42;1.10;99.90
28677;DHT22;15858;48.338;11.078;2023-03-03T01:01:09;1.10;99.90
28677;DHT22;15858;48.338;11.078;2023-03-03T01:03:35;1.00;99.90
28677;DHT22;15858;48.338;11.078;2023-03-03T01:06:02;1.10;99.90
28677;DHT22;15858;48.338;11.078;2023-03-03T01:08:29;1.00;99.90
28677;DHT22;15858;48.338;11.078;2023-03-03T01:10:59;1.00;99.90
28677;DHT22;15858;48.338;11.078;2023-03-03T01:13:29;0.90;99.90
28677;DHT22;15858;48.338;11.078;2023-03-03T01:15:57;0.90;99.90
28677;DHT22;15858;48.338;11.078;2023-03-03T01:18:25;0.90;99.90
28677;DHT22;15858;48.338;11.078;2023-03-03T01:20:52;0.90;99.90
28677;DHT22;15858;48.338;11.078;2023-03-03T01:23:18;0.90;99.90
28677;DHT22;15858;48.338;11.078;2023-03-03T01:25:45;0.90;99.90
28677;DHT22;15858;48.338;11.078;2023-03-03T01:28:12;0.80;99.90
28677;DHT22;15858;48.338;11.078;2023-03-03T01:30:39;0.90;99.90
28677;DHT22;15858;48.338;11.078;2023-03-03T01:33:05;0.90;99.90
28677;DHT22;15858;48.338;11.078;2023-03-03T01:35:32;0.90;99.90
28677;DHT22;15858;48.338;11.078;2023-03-03T01:37:58;0.80;99.90
28677;DHT22;15858;48.338;11.078;2023-03-03T01:40:29;0.90;99.90
28677;DHT22;15858;48.338;11.078;2023-03-03T01:42:58;0.90;99.90
28677;DHT22;15858;48.338;11.078;2023-03-03T01:45:26;0.90;99.90
28677;DHT22;15858;48.338;11.078;2023-03-03T01:50:34;0.90;99.90
28677;DHT22;15858;48.338;11.078;2023-03-03T01:53:03;0.90;99.90
28677;DHT22;15858;48.338;11.078;2023-03-03T01:55:34;1.00;99.90
28677;DHT22;15858;48.338;11.078;2023-03-03T01:58:11;1.00;99.90
28677;DHT22;15858;48.338;11.078;2023-03-03T02:00:42;0.90;99.90
28677;DHT22;15858;48.338;11.078;2023-03-03T02:03:10;0.90;99.90
28677;DHT22;15858;48.338;11.078;2023-03-03T02:05:38;0.90;99.90
28677;DHT22;15858;48.338;11.078;2023-03-03T02:08:08;0.80;99.90
28677;DHT22;15858;48.338;11.078;2023-03-03T02:10:36;0.90;99.90
28677;DHT22;15858;48.338;11.078;2023-03-03T02:13:03;0.80;99.90
28677;DHT22;15858;48.338;11.078;2023-03-03T02:15:32;0.90;99.90
28677;DHT22;15858;48.338;11.078;2023-03-03T02:18:02;0.90;99.90
28677;DHT22;15858;48.338;11.078;2023-03-03T02:28:46;0.80;99.90
28677;DHT22;15858;48.338;11.078;2023-03-03T02:31:15;0.80;99.90
28677;DHT22;15858;48.338;11.078;2023-03-03T02:33:44;0.80;99.90
28677;DHT22;15858;48.338;11.078;2023-03-03T02:36:13;0.80;99.90
28677;DHT22;15858;48.338;11.078;2023-03-03T02:41:35;0.80;99.90
28677;DHT22;15858;48.338;11.078;2023-03-03T02:46:39;0.70;99.90
28677;DHT22;15858;48.338;11.078;2023-03-03T02:49:08;0.70;99.90
28677;DHT22;15858;48.338;11.078;2023-03-03T02:51:36;0.70;99.90
28677;DHT22;15858;48.338;11.078;2023-03-03T02:54:03;0.70;99.90
28677;DHT22;15858;48.338;11.078;2023-03-03T02:56:30;0.60;99.90
28677;DHT22;15858;48.338;11.078;2023-03-03T02:58:57;0.60;99.90
28677;DHT22;15858;48.338;11.078;2023-03-03T03:01:23;0.60;99.90
28677;DHT22;15858;48.338;11.078;2023-03-03T03:03:50;0.50;99.90
28677;DHT22;15858;48.338;11.078;2023-03-03T03:06:17;0.50;99.90
28677;DHT22;15858;48.338;11.078;2023-03-03T03:08:43;0.50;99.90
28677;DHT22;15858;48.338;11.078;2023-03-03T03:11:10;0.40;99.90
28677;DHT22;15858;48.338;11.078;2023-03-03T03:13:36;0.40;99.90
28677;DHT22;15858;48.338;11.078;2023-03-03T03:16:03;0.30;99.90
28677;DHT22;15858;48.338;11.078;2023-03-03T03:18:30;0.30;99.90
28677;DHT22;15858;48.338;11.078;2023-03-03T03:20:57;0.40;99.90
28677;DHT22;15858;48.338;11.078;2023-03-03T03:23:30;0.40;99.90
28677;DHT22;15858;48.338;11.078;2023-03-03T03:25:57;0.40;99.90
28677;DHT22;15858;48.338;11.078;2023-03-03T03:28:23;0.40;99.90
28677;DHT22;15858;48.338;11.078;2023-03-03T03:30:50;0.40;99.90
28677;DHT22;15858;48.338;11.078;2023-03-03T03:33:17;0.50;99.90
28677;DHT22;15858;48.338;11.078;2023-03-03T03:35:44;0.50;99.90
28677;DHT22;15858;48.338;11.078;2023-03-03T03:38:11;0.60;99.90
28677;DHT22;15858;48.338;11.078;2023-03-03T03:40:39;0.60;99.90
28677;DHT22;15858;48.338;11.078;2023-03-03T03:43:05;0.60;99.90
28677;DHT22;15858;48.338;11.078;2023-03-03T03:45:32;0.70;99.90
28677;DHT22;15858;48.338;11.078;2023-03-03T03:47:59;0.80;99.90
28677;DHT22;15858;48.338;11.078;2023-03-03T03:50:25;0.80;99.90
28677;DHT22;15858;48.338;11.078;2023-03-03T03:52:52;0.80;99.90
28677;DHT22;15858;48.338;11.078;2023-03-03T03:55:19;0.90;99.90
28677;DHT22;15858;48.338;11.078;2023-03-03T03:57:45;1.00;99.90
28677;DHT22;15858;48.338;11.078;2023-03-03T04:00:12;1.00;99.90
28677;DHT22;15858;48.338;11.078;2023-03-03T04:02:39;1.00;99.90
28677;DHT22;15858;48.338;11.078;2023-03-03T04:05:06;1.00;99.90
28677;DHT22;15858;48.338;11.078;2023-03-03T04:07:33;1.00;99.90
28677;DHT22;15858;48.338;11.078;2023-03-03T04:09:59;1.10;99.90
28677;DHT22;15858;48.338;11.078;2023-03-03T04:12:26;1.10;99.90
28677;DHT22;15858;48.338;11.078;2023-03-03T04:14:53;1.10;99.90
28677;DHT22;15858;48.338;11.078;2023-03-03T04:17:22;1.20;99.90
28677;DHT22;15858;48.338;11.078;2023-03-03T04:19:52;1.20;99.90
28677;DHT22;15858;48.338;11.078;2023-03-03T04:22:19;1.20;99.90
28677;DHT22;15858;48.338;11.078;2023-03-03T04:24:45;1.20;99.90
28677;DHT22;15858;48.338;11.078;2023-03-03T04:27:12;1.20;99.90
28677;DHT22;15858;48.338;11.078;2023-03-03T04:29:38;1.30;99.90
28677;DHT22;15858;48.338;11.078;2023-03-03T04:32:05;1.30;99.90
28677;DHT22;15858;48.338;11.078;2023-03-03T04:34:32;1.30;99.90
28677;DHT22;15858;48.338;11.078;2023-03-03T04:36:59;1.30;99.90
28677;DHT22;15858;48.338;11.078;2023-03-03T04:39:25;1.30;99.90
28677;DHT22;15858;48.338;11.078;2023-03-03T04:41:53;1.40;99.90
28677;DHT22;15858;48.338;11.078;2023-03-03T04:44:19;1.40;99.90
28677;DHT22;15858;48.338;11.078;2023-03-03T04:46:46;1.40;99.90
28677;DHT22;15858;48.338;11.078;2023-03-03T04:49:13;1.40;99.90
28677;DHT22;15858;48.338;11.078;2023-03-03T04:51:39;1.40;99.90
28677;DHT22;15858;48.338;11.078;2023-03-03T04:54:06;1.40;99.90
28677;DHT22;15858;48.338;11.078;2023-03-03T04:56:32;1.40;99.90
28677;DHT22;15858;48.338;11.078;2023-03-03T04:58:59;1.40;99.90
28677;DHT22;15858;48.338;11.078;2023-03-03T05:01:25;1.40;99.90
28677;DHT22;15858;48.338;11.078;2023-03-03T05:03:52;1.40;99.90
28677;DHT22;15858;48.338;11.078;2023-03-03T05:06:19;1.50;99.90
28677;DHT22;15858;48.338;11.078;2023-03-03T05:08:45;1.40;99.90
28677;DHT22;15858;48.338;11.078;2023-03-03T05:11:12;1.40;99.90
28677;DHT22;15858;48.338;11.078;2023-03-03T05:13:39;1.50;99.90
28677;DHT22;15858;48.338;11.078;2023-03-03T05:16:06;1.50;99.90
28677;DHT22;15858;48.338;11.078;2023-03-03T05:18:32;1.50;99.90
28677;DHT22;15858;48.338;11.078;2023-03-03T05:20:59;1.50;99.90
28677;DHT22;15858;48.338;11.078;2023-03-03T05:23:26;1.50;99.90
28677;DHT22;15858;48.338;11.078;2023-03-03T05:25:52;1.50;99.90
28677;DHT22;15858;48.338;11.078;2023-03-03T05:28:19;1.50;99.90
28677;DHT22;15858;48.338;11.078;2023-03-03T05:30:45;1.60;99.90
28677;DHT22;15858;48.338;11.078;2023-03-03T05:33:13;1.60;99.90
28677;DHT22;15858;48.338;11.078;2023-03-03T05:35:41;1.60;99.90
28677;DHT22;15858;48.338;11.078;2023-03-03T05:38:08;1.60;99.90
28677;DHT22;15858;48.338;11.078;2023-03-03T05:40:34;1.70;99.90
28677;DHT22;15858;48.338;11.078;2023-03-03T05:43:01;1.70;99.90
28677;DHT22;15858;48.338;11.078;2023-03-03T05:45:27;1.70;99.90
28677;DHT22;15858;48.338;11.078;2023-03-03T05:47:54;1.60;99.90
28677;DHT22;15858;48.338;11.078;2023-03-03T05:50:22;1.50;99.90
28677;DHT22;15858;48.338;11.078;2023-03-03T05:52:49;1.50;99.90
28677;DHT22;15858;48.338;11.078;2023-03-03T05:55:17;1.60;99.90
28677;DHT22;15858;48.338;11.078;2023-03-03T05:57:44;1.60;99.90
28677;DHT22;15858;48.338;11.078;2023-03-03T06:00:13;1.60;99.90
28677;DHT22;15858;48.338;11.078;2023-03-03T06:02:40;1.60;99.90
28677;DHT22;15858;48.338;11.078;2023-03-03T06:05:08;1.60;99.90
28677;DHT22;15858;48.338;11.078;2023-03-03T06:07:35;1.60;99.90
28677;DHT22;15858;48.338;11.078;2023-03-03T06:10:03;1.70;99.90
28677;DHT22;15858;48.338;11.078;2023-03-03T06:12:30;1.70;99.90
28677;DHT22;15858;48.338;11.078;2023-03-03T06:14:56;1.70;99.90
28677;DHT22;15858;48.338;11.078;2023-03-03T06:17:23;1.70;99.90
28677;DHT22;15858;48.338;11.078;2023-03-03T06:19:50;1.70;99.90
28677;DHT22;15858;48.338;11.078;2023-03-03T06:22:16;1.70;99.90
28677;DHT22;15858;48.338;11.078;2023-03-03T06:24:43;1.70;99.90
28677;DHT22;15858;48.338;11.078;2023-03-03T06:27:10;1.70;99.90
28677;DHT22;15858;48.338;11.078;2023-03-03T06:29:36;1.70;99.90
28677;DHT22;15858;48.338;11.078;2023-03-03T06:32:03;1.80;99.90
28677;DHT22;15858;48.338;11.078;2023-03-03T06:34:30;1.80;99.90
28677;DHT22;15858;48.338;11.078;2023-03-03T06:36:56;1.80;99.90
28677;DHT22;15858;48.338;11.078;2023-03-03T06:39:23;1.80;99.90
28677;DHT22;15858;48.338;11.078;2023-03-03T06:41:49;1.80;99.90
28677;DHT22;15858;48.338;11.078;2023-03-03T06:44:16;1.90;99.90
28677;DHT22;15858;48.338;11.078;2023-03-03T06:46:43;1.90;99.90
28677;DHT22;15858;48.338;11.078;2023-03-03T06:49:09;1.90;99.90
28677;DHT22;15858;48.338;11.078;2023-03-03T06:51:38;1.90;99.90
28677;DHT22;15858;48.338;11.078;2023-03-03T06:54:16;1.90;99.90
28677;DHT22;15858;48.338;11.078;2023-03-03T06:56:44;1.90;99.90
28677;DHT22;15858;48.338;11.078;2023-03-03T06:59:16;1.90;99.90
28677;DHT22;15858;48.338;11.078;2023-03-03T07:01:45;1.90;99.90
28677;DHT22;15858;48.338;11.078;2023-03-03T07:06:50;2.00;99.90
28677;DHT22;15858;48.338;11.078;2023-03-03T07:09:25;1.90;99.90
28677;DHT22;15858;48.338;11.078;2023-03-03T07:11:52;1.90;99.90
28677;DHT22;15858;48.338;11.078;2023-03-03T07:14:21;2.00;99.90
28677;DHT22;15858;48.338;11.078;2023-03-03T07:16:57;2.00;99.90
28677;DHT22;15858;48.338;11.078;2023-03-03T07:19:35;2.00;99.90
28677;DHT22;15858;48.338;11.078;2023-03-03T07:22:13;1.90;99.90
28677;DHT22;15858;48.338;11.078;2023-03-03T07:24:42;2.00;99.90
28677;DHT22;15858;48.338;11.078;2023-03-03T07:29:48;2.00;99.90
28677;DHT22;15858;48.338;11.078;2023-03-03T07:32:39;2.00;99.90
28677;DHT22;15858;48.338;11.078;2023-03-03T07:35:42;2.00;99.90
28677;DHT22;15858;48.338;11.078;2023-03-03T07:40:55;2.10;99.90
28677;DHT22;15858;48.338;11.078;2023-03-03T07:43:37;2.10;99.90
28677;DHT22;15858;48.338;11.078;2023-03-03T07:46:36;2.20;99.90
28677;DHT22;15858;48.338;11.078;2023-03-03T07:49:35;2.20;99.90
28677;DHT22;15858;48.338;11.078;2023-03-03T07:54:47;2.20;99.90
28677;DHT22;15858;48.338;11.078;2023-03-03T07:57:19;2.30;99.90
28677;DHT22;15858;48.338;11.078;2023-03-03T07:59:47;2.30;99.90
28677;DHT22;15858;48.338;11.078;2023-03-03T08:05:26;2.30;99.90
28677;DHT22;15858;48.338;11.078;2023-03-03T08:10:47;2.40;99.90
28677;DHT22;15858;48.338;11.078;2023-03-03T08:13:19;2.40;99.90
28677;DHT22;15858;48.338;11.078;2023-03-03T08:15:49;2.50;99.90
28677;DHT22;15858;48.338;11.078;2023-03-03T08:18:23;2.50;99.90
28677;DHT22;15858;48.338;11.078;2023-03-03T08:20:52;2.50;99.90
28677;DHT22;15858;48.338;11.078;2023-03-03T08:23:20;2.50;99.90
28677;DHT22;15858;48.338;11.078;2023-03-03T08:25:48;2.60;99.90
28677;DHT22;15858;48.338;11.078;2023-03-03T08:28:16;2.60;99.90
28677;DHT22;15858;48.338;11.078;2023-03-03T08:30:43;2.60;99.90
28677;DHT22;15858;48.338;11.078;2023-03-03T08:33:11;2.70;99.90
28677;DHT22;15858;48.338;11.078;2023-03-03T08:35:37;2.80;99.90
28677;DHT22;15858;48.338;11.078;2023-03-03T08:38:05;2.80;99.90
28677;DHT22;15858;48.338;11.078;2023-03-03T08:40:32;2.90;99.90
28677;DHT22;15858;48.338;11.078;2023-03-03T08:42:59;3.00;99.90
28677;DHT22;15858;48.338;11.078;2023-03-03T08:45:26;3.00;99.90
28677;DHT22;15858;48.338;11.078;2023-03-03T08:47:54;3.00;99.90
28677;DHT22;15858;48.338;11.078;2023-03-03T08:50:20;2.90;99.90
28677;DHT22;15858;48.338;11.078;2023-03-03T08:52:47;3.00;99.90
28677;DHT22;15858;48.338;11.078;2023-03-03T08:55:14;3.10;99.90
28677;DHT22;15858;48.338;11.078;2023-03-03T08:57:41;3.10;99.90
28677;DHT22;15858;48.338;11.078;2023-03-03T09:00:11;3.20;99.90
28677;DHT22;15858;48.338;11.078;2023-03-03T09:02:39;3.30;99.90
28677;DHT22;15858;48.338;11.078;2023-03-03T09:05:06;3.50;99.90
28677;DHT22;15858;48.338;11.078;2023-03-03T09:07:33;3.50;99.90
28677;DHT22;15858;48.338;11.078;2023-03-03T09:10:00;3.50;99.90
28677;DHT22;15858;48.338;11.078;2023-03-03T09:12:34;3.70;99.90
28677;DHT22;15858;48.338;11.078;2023-03-03T09:15:28;3.80;99.90
28677;DHT22;15858;48.338;11.078;2023-03-03T09:18:16;3.90;99.90
28677;DHT22;15858;48.338;11.078;2023-03-03T09:20:48;4.00;99.90
28677;DHT22;15858;48.338;11.078;2023-03-03T09:26:10;4.00;99.90
28677;DHT22;15858;48.338;11.078;2023-03-03T09:28:41;3.90;99.90
28677;DHT22;15858;48.338;11.078;2023-03-03T09:31:26;4.00;99.90
28677;DHT22;15858;48.338;11.078;2023-03-03T09:33:55;3.90;99.90
28677;DHT22;15858;48.338;11.078;2023-03-03T09:36:25;4.00;99.90
28677;DHT22;15858;48.338;11.078;2023-03-03T09:38:52;4.10;99.90
28677;DHT22;15858;48.338;11.078;2023-03-03T09:44:51;4.20;99.90
28677;DHT22;15858;48.338;11.078;2023-03-03T09:56:01;4.20;99.90
28677;DHT22;15858;48.338;11.078;2023-03-03T09:58:35;4.30;99.90
28677;DHT22;15858;48.338;11.078;2023-03-03T10:12:28;4.40;99.90
28677;DHT22;15858;48.338;11.078;2023-03-03T10:23:55;4.60;99.90
28677;DHT22;15858;48.338;11.078;2023-03-03T10:32:32;4.90;99.90
28677;DHT22;15858;48.338;11.078;2023-03-03T10:35:17;5.10;99.90
28677;DHT22;15858;48.338;11.078;2023-03-03T10:41:10;5.50;99.90
28677;DHT22;15858;48.338;11.078;2023-03-03T10:46:49;5.60;99.90
28677;DHT22;15858;48.338;11.078;2023-03-03T10:52:32;5.60;99.90
28677;DHT22;15858;48.338;11.078;2023-03-03T10:55:05;5.80;99.90
28677;DHT22;15858;48.338;11.078;2023-03-03T11:00:38;5.70;99.90
28677;DHT22;15858;48.338;11.078;2023-03-03T11:06:18;5.70;99.90
28677;DHT22;15858;48.338;11.078;2023-03-03T11:09:18;5.90;99.90
28677;DHT22;15858;48.338;11.078;2023-03-03T11:11:58;5.80;99.90
28677;DHT22;15858;48.338;11.078;2023-03-03T11:15:00;5.80;99.90
28677;DHT22;15858;48.338;11.078;2023-03-03T11:23:48;5.80;99.90
28677;DHT22;15858;48.338;11.078;2023-03-03T11:33:00;6.00;99.90
28677;DHT22;15858;48.338;11.078;2023-03-03T11:38:15;6.00;99.90
28677;DHT22;15858;48.338;11.078;2023-03-03T11:40:52;6.10;99.90
28677;DHT22;15858;48.338;11.078;2023-03-03T11:43:36;6.10;99.90
28677;DHT22;15858;48.338;11.078;2023-03-03T11:46:24;6.10;99.90
28677;DHT22;15858;48.338;11.078;2023-03-03T11:49:04;6.10;99.90
28677;DHT22;15858;48.338;11.078;2023-03-03T11:51:40;6.20;99.90
28677;DHT22;15858;48.338;11.078;2023-03-03T11:57:22;6.40;99.90
28677;DHT22;15858;48.338;11.078;2023-03-03T12:08:21;6.60;99.90
28677;DHT22;15858;48.338;11.078;2023-03-03T12:16:51;6.90;99.90
28677;DHT22;15858;48.338;11.078;2023-03-03T12:19:51;6.90;99.90
28677;DHT22;15858;48.338;11.078;2023-03-03T12:22:34;7.00;99.90
28677;DHT22;15858;48.338;11.078;2023-03-03T12:25:07;7.10;99.90
28677;DHT22;15858;48.338;11.078;2023-03-03T12:33:09;7.30;99.90
28677;DHT22;15858;48.338;11.078;2023-03-03T12:42:09;7.80;99.90
28677;DHT22;15858;48.338;11.078;2023-03-03T12:49:37;7.90;99.90
28677;DHT22;15858;48.338;11.078;2023-03-03T12:52:22;8.20;99.90
28677;DHT22;15858;48.338;11.078;2023-03-03T12:55:21;8.50;99.90
28677;DHT22;15858;48.338;11.078;2023-03-03T13:00:42;9.30;99.90
28677;DHT22;15858;48.338;11.078;2023-03-03T13:03:27;9.20;99.90
28677;DHT22;15858;48.338;11.078;2023-03-03T13:17:18;8.20;99.90
28677;DHT22;15858;48.338;11.078;2023-03-03T13:31:34;8.00;99.90
28677;DHT22;15858;48.338;11.078;2023-03-03T13:34:02;8.00;99.90
28677;DHT22;15858;48.338;11.078;2023-03-03T13:36:41;7.90;99.90
28677;DHT22;15858;48.338;11.078;2023-03-03T13:39:26;7.90;99.90
28677;DHT22;15858;48.338;11.078;2023-03-03T13:42:01;8.10;99.90
28677;DHT22;15858;48.338;11.078;2023-03-03T13:44:45;8.20;99.90
28677;DHT22;15858;48.338;11.078;2023-03-03T13:50:08;8.30;99.90
28677;DHT22;15858;48.338;11.078;2023-03-03T13:55:35;8.20;99.90
28677;DHT22;15858;48.338;11.078;2023-03-03T14:00:53;8.10;99.90
28677;DHT22;15858;48.338;11.078;2023-03-03T14:03:42;8.20;99.90
28677;DHT22;15858;48.338;11.078;2023-03-03T14:06:19;8.30;99.90
28677;DHT22;15858;48.338;11.078;2023-03-03T14:08:53;8.20;99.90
28677;DHT22;15858;48.338;11.078;2023-03-03T14:14:12;8.20;99.90
28677;DHT22;15858;48.338;11.078;2023-03-03T14:17:01;8.20;99.90
28677;DHT22;15858;48.338;11.078;2023-03-03T14:19:39;8.30;99.90
28677;DHT22;15858;48.338;11.078;2023-03-03T14:22:25;8.30;99.90
28677;DHT22;15858;48.338;11.078;2023-03-03T14:25:03;8.50;99.90
28677;DHT22;15858;48.338;11.078;2023-03-03T14:35:38;8.30;99.90
28677;DHT22;15858;48.338;11.078;2023-03-03T14:38:13;8.40;99.90
28677;DHT22;15858;48.338;11.078;2023-03-03T14:40:42;8.40;99.90
28677;DHT22;15858;48.338;11.078;2023-03-03T14:43:24;8.30;99.90
28677;DHT22;15858;48.338;11.078;2023-03-03T14:45:52;8.30;99.90
28677;DHT22;15858;48.338;11.078;2023-03-03T14:50:53;8.40;99.90
28677;DHT22;15858;48.338;11.078;2023-03-03T14:53:33;8.50;99.90
28677;DHT22;15858;48.338;11.078;2023-03-03T14:56:33;8.70;99.90
28677;DHT22;15858;48.338;11.078;2023-03-03T14:59:18;9.00;99.90
28677;DHT22;15858;48.338;11.078;2023-03-03T15:01:46;9.00;99.90
28677;DHT22;15858;48.338;11.078;2023-03-03T15:04:24;9.10;99.90
28677;DHT22;15858;48.338;11.078;2023-03-03T15:06:53;9.10;99.90
28677;DHT22;15858;48.338;11.078;2023-03-03T15:09:33;9.00;99.90
28677;DHT22;15858;48.338;11.078;2023-03-03T15:14:48;9.20;99.90
28677;DHT22;15858;48.338;11.078;2023-03-03T15:17:40;9.30;99.90
28677;DHT22;15858;48.338;11.078;2023-03-03T15:26:05;9.20;99.90
28677;DHT22;15858;48.338;11.078;2023-03-03T15:41:03;9.00;99.90
28677;DHT22;15858;48.338;11.078;2023-03-03T15:45:47;8.90;99.90
28677;DHT22;15858;48.338;11.078;2023-03-03T15:48:45;8.80;99.90
28677;DHT22;15858;48.338;11.078;2023-03-03T15:51:30;8.80;99.90
28677;DHT22;15858;48.338;11.078;2023-03-03T15:54:29;8.70;99.90
28677;DHT22;15858;48.338;11.078;2023-03-03T15:57:13;8.60;99.90
28677;DHT22;15858;48.338;11.078;2023-03-03T15:59:53;8.40;99.90
28677;DHT22;15858;48.338;11.078;2023-03-03T16:02:25;8.40;99.90
28677;DHT22;15858;48.338;11.078;2023-03-03T16:05:06;8.40;99.90
28677;DHT22;15858;48.338;11.078;2023-03-03T16:08:01;8.30;99.90
28677;DHT22;15858;48.338;11.078;2023-03-03T16:10:38;8.30;99.90
28677;DHT22;15858;48.338;11.078;2023-03-03T16:18:52;8.10;99.90
28677;DHT22;15858;48.338;11.078;2023-03-03T16:31:03;7.90;99.90
28677;DHT22;15858;48.338;11.078;2023-03-03T16:36:04;7.70;99.90
28677;DHT22;15858;48.338;11.078;2023-03-03T16:41:00;7.50;99.90
28677;DHT22;15858;48.338;11.078;2023-03-03T16:49:28;7.10;99.90
28677;DHT22;15858;48.338;11.078;2023-03-03T16:52:14;7.10;99.90
28677;DHT22;15858;48.338;11.078;2023-03-03T16:54:56;7.00;99.90
28677;DHT22;15858;48.338;11.078;2023-03-03T16:57:32;6.80;99.90
28677;DHT22;15858;48.338;11.078;2023-03-03T17:05:49;6.60;99.90
28677;DHT22;15858;48.338;11.078;2023-03-03T17:08:22;6.50;99.90
28677;DHT22;15858;48.338;11.078;2023-03-03T17:16:39;6.20;99.90
28677;DHT22;15858;48.338;11.078;2023-03-03T17:19:44;6.10;99.90
28677;DHT22;15858;48.338;11.078;2023-03-03T17:36:49;5.40;99.90
28677;DHT22;15858;48.338;11.078;2023-03-03T17:42:08;5.20;99.90
28677;DHT22;15858;48.338;11.078;2023-03-03T17:45:10;5.10;99.90
28677;DHT22;15858;48.338;11.078;2023-03-03T17:51:15;5.00;99.90
28677;DHT22;15858;48.338;11.078;2023-03-03T17:56:30;4.70;99.90
28677;DHT22;15858;48.338;11.078;2023-03-03T18:01:59;4.70;99.90
28677;DHT22;15858;48.338;11.078;2023-03-03T18:07:24;4.50;99.90
28677;DHT22;15858;48.338;11.078;2023-03-03T18:16:13;4.40;99.90
28677;DHT22;15858;48.338;11.078;2023-03-03T18:27:36;4.20;99.90
28677;DHT22;15858;48.338;11.078;2023-03-03T18:37:51;4.00;99.90
28677;DHT22;15858;48.338;11.078;2023-03-03T18:40:32;4.00;99.90
28677;DHT22;15858;48.338;11.078;2023-03-03T18:46:08;3.80;99.90
28677;DHT22;15858;48.338;11.078;2023-03-03T18:49:00;3.70;99.90
28677;DHT22;15858;48.338;11.078;2023-03-03T19:05:35;3.40;99.90
28677;DHT22;15858;48.338;11.078;2023-03-03T19:07:50;3.40;99.90
28677;DHT22;15858;48.338;11.078;2023-03-03T19:12:52;3.30;99.90
28677;DHT22;15858;48.338;11.078;2023-03-03T19:18:27;3.20;99.90
28677;DHT22;15858;48.338;11.078;2023-03-03T19:21:01;3.10;99.90
28677;DHT22;15858;48.338;11.078;2023-03-03T19:23:49;3.10;99.90
28677;DHT22;15858;48.338;11.078;2023-03-03T19:34:48;2.90;99.90
28677;DHT22;15858;48.338;11.078;2023-03-03T19:37:32;2.90;99.90
28677;DHT22;15858;48.338;11.078;2023-03-03T19:48:39;2.70;99.90
28677;DHT22;15858;48.338;11.078;2023-03-03T19:51:26;2.70;99.90
28677;DHT22;15858;48.338;11.078;2023-03-03T20:07:22;2.40;99.90
28677;DHT22;15858;48.338;11.078;2023-03-03T20:15:19;2.30;99.90
28677;DHT22;15858;48.338;11.078;2023-03-03T20:42:16;2.10;99.90
28677;DHT22;15858;48.338;11.078;2023-03-03T20:53:01;2.00;99.90
28677;DHT22;15858;48.338;11.078;2023-03-03T20:59:12;2.00;99.90
28677;DHT22;15858;48.338;11.078;2023-03-03T21:02:16;1.90;99.90
28677;DHT22;15858;48.338;11.078;2023-03-03T21:04:38;1.90;99.90
28677;DHT22;15858;48.338;11.078;2023-03-03T21:07:05;1.90;99.90
28677;DHT22;15858;48.338;11.078;2023-03-03T21:09:36;1.90;99.90
28677;DHT22;15858;48.338;11.078;2023-03-03T21:12:25;1.80;99.90
28677;DHT22;15858;48.338;11.078;2023-03-03T21:15:06;1.90;99.90
28677;DHT22;15858;48.338;11.078;2023-03-03T21:17:33;1.80;99.90
28677;DHT22;15858;48.338;11.078;2023-03-03T21:22:46;1.70;99.90
28677;DHT22;15858;48.338;11.078;2023-03-03T21:25:42;1.70;99.90
28677;DHT22;15858;48.338;11.078;2023-03-03T21:31:13;1.60;99.90
28677;DHT22;15858;48.338;11.078;2023-03-03T21:36:09;1.60;99.90
28677;DHT22;15858;48.338;11.078;2023-03-03T21:38:37;1.60;99.90
28677;DHT22;15858;48.338;11.078;2023-03-03T21:41:05;1.50;99.90
28677;DHT22;15858;48.338;11.078;2023-03-03T21:43:38;1.50;99.90
28677;DHT22;15858;48.338;11.078;2023-03-03T21:46:05;1.50;99.90
28677;DHT22;15858;48.338;11.078;2023-03-03T21:48:31;1.40;99.90
28677;DHT22;15858;48.338;11.078;2023-03-03T21:50:58;1.50;99.90
28677;DHT22;15858;48.338;11.078;2023-03-03T21:53:25;1.50;99.90
28677;DHT22;15858;48.338;11.078;2023-03-03T21:55:52;1.40;99.90
28677;DHT22;15858;48.338;11.078;2023-03-03T21:58:19;1.40;99.90
28677;DHT22;15858;48.338;11.078;2023-03-03T22:00:45;1.40;99.90
28677;DHT22;15858;48.338;11.078;2023-03-03T22:03:12;1.40;99.90
28677;DHT22;15858;48.338;11.078;2023-03-03T22:05:40;1.40;99.90
28677;DHT22;15858;48.338;11.078;2023-03-03T22:08:06;1.40;99.90
28677;DHT22;15858;48.338;11.078;2023-03-03T22:10:33;1.30;99.90
28677;DHT22;15858;48.338;11.078;2023-03-03T22:13:00;1.20;99.90
28677;DHT22;15858;48.338;11.078;2023-03-03T22:15:27;1.30;99.90
28677;DHT22;15858;48.338;11.078;2023-03-03T22:17:53;1.30;99.90
28677;DHT22;15858;48.338;11.078;2023-03-03T22:20:20;1.20;99.90
28677;DHT22;15858;48.338;11.078;2023-03-03T22:22:46;1.20;99.90
28677;DHT22;15858;48.338;11.078;2023-03-03T22:25:13;1.20;99.90
28677;DHT22;15858;48.338;11.078;2023-03-03T22:27:39;1.20;99.90
28677;DHT22;15858;48.338;11.078;2023-03-03T22:30:07;1.20;99.90
28677;DHT22;15858;48.338;11.078;2023-03-03T22:32:33;1.20;99.90
28677;DHT22;15858;48.338;11.078;2023-03-03T22:35:00;1.20;99.90
28677;DHT22;15858;48.338;11.078;2023-03-03T22:37:27;1.10;99.90
28677;DHT22;15858;48.338;11.078;2023-03-03T22:39:53;1.10;99.90
28677;DHT22;15858;48.338;11.078;2023-03-03T22:42:20;1.10;99.90
28677;DHT22;15858;48.338;11.078;2023-03-03T22:44:46;1.10;99.90
28677;DHT22;15858;48.338;11.078;2023-03-03T22:47:13;1.00;99.90
28677;DHT22;15858;48.338;11.078;2023-03-03T22:49:39;1.00;99.90